sensor_id;sensor_type;location;lat;lon;timestamp;temperature;humidity
1075;DHT22;526;51.392;12.448;2023-09-19T04:01:55;18.20;97.30
1075;DHT22;526;51.392;12.448;2023-09-19T04:04:22;18.10;97.30
1075;DHT22;526;51.392;12.448;2023-09-19T04:06:52;18.10;97.30
1075;DHT22;526;51.392;12.448;2023-09-19T04:09:18;18.10;97.30
1075;DHT22;526;51.392;12.448;2023-09-19T04:11:44;18.10;97.30
1075;DHT22;526;51.392;12.448;2023-09-19T04:14:09;18.00;97.30
1075;DHT22;526;51.392;12.448;2023-09-19T04:16:35;18.00;97.30
1075;DHT22;526;51.392;12.448;2023-09-19T04:19:00;18.00;97.30
1075;DHT22;526;51.392;12.448;2023-09-19T04:21:26;18.00;97.30
1075;DHT22;526;51.392;12.448;2023-09-19T04:23:53;18.00;97.30
1075;DHT22;526;51.392;12.448;2023-09-19T04:26:19;18.00;97.30
1075;DHT22;526;51.392;12.448;2023-09-19T04:28:44;18.00;97.30
1075;DHT22;526;51.392;12.448;2023-09-19T04:31:11;18.00;97.30
1075;DHT22;526;51.392;12.448;2023-09-19T04:33:37;18.00;97.30
1075;DHT22;526;51.392;12.448;2023-09-19T04:36:03;17.90;97.30
1075;DHT22;526;51.392;12.448;2023-09-19T04:38:33;17.90;97.30
1075;DHT22;526;51.392;12.448;2023-09-19T04:40:58;17.90;97.30
1075;DHT22;526;51.392;12.448;2023-09-19T04:43:25;18.00;97.30
1075;DHT22;526;51.392;12.448;2023-09-19T04:45:50;18.00;97.30
1075;DHT22;526;51.392;12.448;2023-09-19T04:48:16;18.00;97.30
1075;DHT22;526;51.392;12.448;2023-09-19T04:50:42;18.00;97.30
1075;DHT22;526;51.392;12.448;2023-09-19T04:53:08;17.90;97.30
1075;DHT22;526;51.392;12.448;2023-09-19T04:55:33;17.90;97.30
1075;DHT22;526;51.392;12.448;2023-09-19T04:57:59;17.90;97.30
1075;DHT22;526;51.392;12.448;2023-09-19T05:00:25;17.90;97.30
1075;DHT22;526;51.392;12.448;2023-09-19T05:02:55;17.90;97.30
1075;DHT22;526;51.392;12.448;2023-09-19T05:05:24;17.90;97.30
1075;DHT22;526;51.392;12.448;2023-09-19T05:07:51;17.80;97.30
1075;DHT22;526;51.392;12.448;2023-09-19T05:10:18;17.80;97.30
1075;DHT22;526;51.392;12.448;2023-09-19T05:12:44;17.80;97.30
1075;DHT22;526;51.392;12.448;2023-09-19T05:15:14;17.80;97.30
1075;DHT22;526;51.392;12.448;2023-09-19T05:17:40;17.70;97.30
1075;DHT22;526;51.392;12.448;2023-09-19T05:20:07;17.70;97.30
1075;DHT22;526;51.392;12.448;2023-09-19T05:22:42;17.70;97.30
1075;DHT22;526;51.392;12.448;2023-09-19T05:25:09;17.70;97.30
1075;DHT22;526;51.392;12.448;2023-09-19T05:27:35;17.60;97.30
1075;DHT22;526;51.392;12.448;2023-09-19T05:30:01;17.60;97.30
1075;DHT22;526;51.392;12.448;2023-09-19T05:32:26;17.50;97.30
1075;DHT22;526;51.392;12.448;2023-09-19T05:34:52;17.50;97.30
1075;DHT22;526;51.392;12.448;2023-09-19T05:37:19;17.50;97.30
1075;DHT22;526;51.392;12.448;2023-09-19T05:39:44;17.50;97.30
1075;DHT22;526;51.392;12.448;2023-09-19T05:42:10;17.50;97.30
1075;DHT22;526;51.392;12.448;2023-09-19T05:44:36;17.50;97.30
1075;DHT22;526;51.392;12.448;2023-09-19T05:47:02;17.40;97.30
1075;DHT22;526;51.392;12.448;2023-09-19T05:49:28;17.50;97.30
1075;DHT22;526;51.392;12.448;2023-09-19T05:51:54;17.50;97.30
1075;DHT22;526;51.392;12.448;2023-09-19T05:54:21;17.50;97.30
1075;DHT22;526;51.392;12.448;2023-09-19T05:56:47;17.50;97.30
1075;DHT22;526;51.392;12.448;2023-09-19T05:59:14;17.50;97.30
1075;DHT22;526;51.392;12.448;2023-09-19T06:01:42;17.50;97.30
1075;DHT22;526;51.392;12.448;2023-09-19T06:04:07;17.50;97.30
1075;DHT22;526;51.392;12.448;2023-09-19T06:06:33;17.50;97.30
1075;DHT22;526;51.392;12.448;2023-09-19T06:09:04;17.50;97.30
1075;DHT22;526;51.392;12.448;2023-09-19T06:11:31;17.50;97.30
1075;DHT22;526;51.392;12.448;2023-09-19T06:14:00;17.50;97.30
1075;DHT22;526;51.392;12.448;2023-09-19T06:16:30;17.50;97.30
1075;DHT22;526;51.392;12.448;2023-09-19T06:18:57;17.50;97.30
1075;DHT22;526;51.392;12.448;2023-09-19T06:21:25;17.50;97.30
1075;DHT22;526;51.392;12.448;2023-09-19T06:23:52;17.50;97.30
1075;DHT22;526;51.392;12.448;2023-09-19T06:26:18;17.50;97.30
1075;DHT22;526;51.392;12.448;2023-09-19T06:28:44;17.50;97.30
1075;DHT22;526;51.392;12.448;2023-09-19T06:31:10;17.60;97.30
1075;DHT22;526;51.392;12.448;2023-09-19T06:33:36;17.60;97.30
1075;DHT22;526;51.392;12.448;2023-09-19T06:36:06;17.70;97.30
1075;DHT22;526;51.392;12.448;2023-09-19T06:38:32;17.70;97.30
1075;DHT22;526;51.392;12.448;2023-09-19T06:40:59;17.80;97.30
1075;DHT22;526;51.392;12.448;2023-09-19T06:43:26;17.80;97.30
1075;DHT22;526;51.392;12.448;2023-09-19T06:45:54;17.90;97.30
1075;DHT22;526;51.392;12.448;2023-09-19T06:48:20;18.00;97.30
1075;DHT22;526;51.392;12.448;2023-09-19T06:50:46;18.10;97.30
1075;DHT22;526;51.392;12.448;2023-09-19T06:53:13;18.20;97.30
1075;DHT22;526;51.392;12.448;2023-09-19T06:55:39;18.20;97.30
1075;DHT22;526;51.392;12.448;2023-09-19T06:58:05;18.20;97.30
1075;DHT22;526;51.392;12.448;2023-09-19T07:00:31;18.20;97.30
1075;DHT22;526;51.392;12.448;2023-09-19T07:03:06;18.30;97.30
1075;DHT22;526;51.392;12.448;2023-09-19T07:05:37;18.30;97.30
1075;DHT22;526;51.392;12.448;2023-09-19T07:08:05;18.30;97.30
1075;DHT22;526;51.392;12.448;2023-09-19T07:10:32;18.40;97.30
1075;DHT22;526;51.392;12.448;2023-09-19T07:12:59;18.40;97.30
1075;DHT22;526;51.392;12.448;2023-09-19T07:15:26;18.50;97.30
1075;DHT22;526;51.392;12.448;2023-09-19T07:17:53;18.60;97.30
1075;DHT22;526;51.392;12.448;2023-09-19T07:20:22;18.60;97.30
1075;DHT22;526;51.392;12.448;2023-09-19T07:22:49;18.70;97.30
1075;DHT22;526;51.392;12.448;2023-09-19T07:25:16;18.70;97.30
1075;DHT22;526;51.392;12.448;2023-09-19T07:27:42;18.70;97.30
1075;DHT22;526;51.392;12.448;2023-09-19T07:30:08;18.70;97.30
1075;DHT22;526;51.392;12.448;2023-09-19T07:32:34;18.80;97.30
1075;DHT22;526;51.392;12.448;2023-09-19T07:35:04;18.80;97.30
1075;DHT22;526;51.392;12.448;2023-09-19T07:37:31;18.70;97.30
1075;DHT22;526;51.392;12.448;2023-09-19T07:39:59;18.70;97.30
1075;DHT22;526;51.392;12.448;2023-09-19T07:42:25;18.70;97.30
1075;DHT22;526;51.392;12.448;2023-09-19T07:44:51;18.70;96.80
1075;DHT22;526;51.392;12.448;2023-09-19T07:47:17;18.80;96.30
1075;DHT22;526;51.392;12.448;2023-09-19T07:49:42;18.90;96.80
1075;DHT22;526;51.392;12.448;2023-09-19T07:52:09;18.90;96.00
1075;DHT22;526;51.392;12.448;2023-09-19T07:54:35;19.00;95.60
1075;DHT22;526;51.392;12.448;2023-09-19T07:57:02;19.10;95.00
1075;DHT22;526;51.392;12.448;2023-09-19T07:59:27;19.10;94.60
1075;DHT22;526;51.392;12.448;2023-09-19T08:01:53;19.10;94.00
1075;DHT22;526;51.392;12.448;2023-09-19T08:04:19;19.20;93.60
1075;DHT22;526;51.392;12.448;2023-09-19T08:06:45;19.20;94.00
1075;DHT22;526;51.392;12.448;2023-09-19T08:09:10;19.40;94.00
1075;DHT22;526;51.392;12.448;2023-09-19T08:11:37;19.40;93.80
1075;DHT22;526;51.392;12.448;2023-09-19T08:14:04;19.40;94.10
1075;DHT22;526;51.392;12.448;2023-09-19T08:16:31;19.40;94.40
1075;DHT22;526;51.392;12.448;2023-09-19T08:18:57;19.40;93.90
1075;DHT22;526;51.392;12.448;2023-09-19T08:21:23;19.30;94.30
1075;DHT22;526;51.392;12.448;2023-09-19T08:23:49;19.30;94.10
1075;DHT22;526;51.392;12.448;2023-09-19T08:26:15;19.20;94.30
1075;DHT22;526;51.392;12.448;2023-09-19T08:28:41;19.20;94.60
1075;DHT22;526;51.392;12.448;2023-09-19T08:31:07;19.10;94.10
1075;DHT22;526;51.392;12.448;2023-09-19T08:33:34;19.10;94.00
1075;DHT22;526;51.392;12.448;2023-09-19T08:36:01;19.10;94.30
1075;DHT22;526;51.392;12.448;2023-09-19T08:38:33;19.00;94.10
1075;DHT22;526;51.392;12.448;2023-09-19T08:40:59;19.00;94.30
1075;DHT22;526;51.392;12.448;2023-09-19T08:43:26;19.00;94.40
1075;DHT22;526;51.392;12.448;2023-09-19T08:46:09;19.00;94.50
1075;DHT22;526;51.392;12.448;2023-09-19T08:48:34;19.10;94.40
1075;DHT22;526;51.392;12.448;2023-09-19T08:51:06;19.10;95.30
1075;DHT22;526;51.392;12.448;2023-09-19T08:56:01;19.10;94.70
1075;DHT22;526;51.392;12.448;2023-09-19T08:58:34;19.10;94.20
1075;DHT22;526;51.392;12.448;2023-09-19T09:01:00;19.10;94.90
1075;DHT22;526;51.392;12.448;2023-09-19T09:03:29;19.20;95.00
1075;DHT22;526;51.392;12.448;2023-09-19T09:05:57;19.20;94.40
1075;DHT22;526;51.392;12.448;2023-09-19T09:08:24;19.30;94.60
1075;DHT22;526;51.392;12.448;2023-09-19T09:10:51;19.40;94.20
1075;DHT22;526;51.392;12.448;2023-09-19T09:13:17;19.50;94.70
1075;DHT22;526;51.392;12.448;2023-09-19T09:15:43;19.60;94.30
1075;DHT22;526;51.392;12.448;2023-09-19T09:18:10;19.70;93.90
1075;DHT22;526;51.392;12.448;2023-09-19T09:20:36;19.80;93.90
1075;DHT22;526;51.392;12.448;2023-09-19T09:23:02;19.80;93.40
1075;DHT22;526;51.392;12.448;2023-09-19T09:25:52;19.80;91.90
1075;DHT22;526;51.392;12.448;2023-09-19T09:28:47;19.80;90.90
1075;DHT22;526;51.392;12.448;2023-09-19T09:31:22;19.80;91.50
1075;DHT22;526;51.392;12.448;2023-09-19T09:33:55;19.80;90.40
1075;DHT22;526;51.392;12.448;2023-09-19T09:36:40;19.80;90.40
1075;DHT22;526;51.392;12.448;2023-09-19T09:39:09;19.80;89.10
1075;DHT22;526;51.392;12.448;2023-09-19T09:41:44;19.80;89.00
1075;DHT22;526;51.392;12.448;2023-09-19T09:44:15;19.90;89.10
1075;DHT22;526;51.392;12.448;2023-09-19T09:46:44;20.00;88.40
1075;DHT22;526;51.392;12.448;2023-09-19T09:49:26;20.10;87.10
1075;DHT22;526;51.392;12.448;2023-09-19T09:52:07;20.10;87.60
1075;DHT22;526;51.392;12.448;2023-09-19T09:54:35;20.10;85.70
1075;DHT22;526;51.392;12.448;2023-09-19T09:57:08;20.10;85.70
1075;DHT22;526;51.392;12.448;2023-09-19T10:02:16;20.10;85.90
1075;DHT22;526;51.392;12.448;2023-09-19T10:04:45;20.10;85.90
1075;DHT22;526;51.392;12.448;2023-09-19T10:07:28;20.20;86.40
1075;DHT22;526;51.392;12.448;2023-09-19T10:10:01;20.20;86.10
1075;DHT22;526;51.392;12.448;2023-09-19T10:12:38;20.20;85.30
1075;DHT22;526;51.392;12.448;2023-09-19T10:15:08;20.20;85.70
1075;DHT22;526;51.392;12.448;2023-09-19T10:17:36;20.20;85.90
1075;DHT22;526;51.392;12.448;2023-09-19T10:20:05;20.30;86.80
1075;DHT22;526;51.392;12.448;2023-09-19T10:22:43;20.30;85.60
1075;DHT22;526;51.392;12.448;2023-09-19T10:25:11;20.20;84.90
1075;DHT22;526;51.392;12.448;2023-09-19T10:27:38;20.10;84.20
1075;DHT22;526;51.392;12.448;2023-09-19T10:30:08;20.00;83.90
1075;DHT22;526;51.392;12.448;2023-09-19T10:32:35;20.00;84.40
1075;DHT22;526;51.392;12.448;2023-09-19T10:35:02;20.00;84.40
1075;DHT22;526;51.392;12.448;2023-09-19T10:37:32;20.00;84.70
1075;DHT22;526;51.392;12.448;2023-09-19T10:39:59;20.00;84.00
1075;DHT22;526;51.392;12.448;2023-09-19T10:42:27;20.10;83.60
1075;DHT22;526;51.392;12.448;2023-09-19T10:44:55;20.10;84.30
1075;DHT22;526;51.392;12.448;2023-09-19T10:47:25;20.20;83.70
1075;DHT22;526;51.392;12.448;2023-09-19T10:49:51;20.30;83.60
1075;DHT22;526;51.392;12.448;2023-09-19T10:52:25;20.30;84.40
1075;DHT22;526;51.392;12.448;2023-09-19T10:54:54;20.40;84.10
1075;DHT22;526;51.392;12.448;2023-09-19T10:57:23;20.40;83.40
1075;DHT22;526;51.392;12.448;2023-09-19T11:00:08;20.50;83.00
1075;DHT22;526;51.392;12.448;2023-09-19T11:05:39;20.60;82.80
1075;DHT22;526;51.392;12.448;2023-09-19T11:08:07;20.60;81.70
1075;DHT22;526;51.392;12.448;2023-09-19T11:10:59;20.60;82.40
1075;DHT22;526;51.392;12.448;2023-09-19T11:13:30;20.60;82.40
1075;DHT22;526;51.392;12.448;2023-09-19T11:16:03;20.60;81.90
1075;DHT22;526;51.392;12.448;2023-09-19T11:26:50;20.60;81.20
1075;DHT22;526;51.392;12.448;2023-09-19T11:29:30;20.60;82.30
1075;DHT22;526;51.392;12.448;2023-09-19T11:31:57;20.70;81.70
1075;DHT22;526;51.392;12.448;2023-09-19T11:34:44;20.80;82.10
1075;DHT22;526;51.392;12.448;2023-09-19T11:40:06;20.90;81.70
1075;DHT22;526;51.392;12.448;2023-09-19T11:42:47;21.00;82.20
1075;DHT22;526;51.392;12.448;2023-09-19T11:48:23;21.10;80.10
1075;DHT22;526;51.392;12.448;2023-09-19T11:50:51;21.10;80.90
1075;DHT22;526;51.392;12.448;2023-09-19T11:53:17;21.20;80.40
1075;DHT22;526;51.392;12.448;2023-09-19T11:55:45;21.20;81.20
1075;DHT22;526;51.392;12.448;2023-09-19T11:58:14;21.30;80.90
1075;DHT22;526;51.392;12.448;2023-09-19T12:00:43;21.30;80.50
1075;DHT22;526;51.392;12.448;2023-09-19T12:03:10;21.30;79.70
1075;DHT22;526;51.392;12.448;2023-09-19T12:05:37;21.40;81.20
1075;DHT22;526;51.392;12.448;2023-09-19T12:08:04;21.50;81.40
1075;DHT22;526;51.392;12.448;2023-09-19T12:10:33;21.60;80.60
1075;DHT22;526;51.392;12.448;2023-09-19T12:12:58;21.60;80.30
1075;DHT22;526;51.392;12.448;2023-09-19T12:15:28;21.60;79.60
1075;DHT22;526;51.392;12.448;2023-09-19T12:17:59;21.70;80.80
1075;DHT22;526;51.392;12.448;2023-09-19T12:20:40;21.80;81.20
1075;DHT22;526;51.392;12.448;2023-09-19T12:23:13;22.00;79.40
1075;DHT22;526;51.392;12.448;2023-09-19T12:25:42;22.00;80.10
1075;DHT22;526;51.392;12.448;2023-09-19T12:28:12;22.10;79.20
1075;DHT22;526;51.392;12.448;2023-09-19T12:30:37;22.00;79.70
1075;DHT22;526;51.392;12.448;2023-09-19T12:33:18;21.90;79.20
1075;DHT22;526;51.392;12.448;2023-09-19T12:35:51;21.70;80.20
1075;DHT22;526;51.392;12.448;2023-09-19T12:38:28;21.70;80.70
1075;DHT22;526;51.392;12.448;2023-09-19T12:40:58;21.70;80.60
1075;DHT22;526;51.392;12.448;2023-09-19T12:43:31;21.70;79.60
1075;DHT22;526;51.392;12.448;2023-09-19T12:46:01;21.70;79.40
1075;DHT22;526;51.392;12.448;2023-09-19T12:48:28;21.70;80.50
1075;DHT22;526;51.392;12.448;2023-09-19T12:51:07;21.80;81.30
1075;DHT22;526;51.392;12.448;2023-09-19T12:53:45;21.80;79.20
1075;DHT22;526;51.392;12.448;2023-09-19T12:56:16;21.80;79.60
1075;DHT22;526;51.392;12.448;2023-09-19T12:58:52;21.90;79.90
1075;DHT22;526;51.392;12.448;2023-09-19T13:01:22;22.00;79.10
1075;DHT22;526;51.392;12.448;2023-09-19T13:04:14;22.10;80.00
1075;DHT22;526;51.392;12.448;2023-09-19T13:06:52;22.20;79.50
1075;DHT22;526;51.392;12.448;2023-09-19T13:09:22;22.40;78.70
1075;DHT22;526;51.392;12.448;2023-09-19T13:11:50;22.40;78.50
1075;DHT22;526;51.392;12.448;2023-09-19T13:14:24;22.40;78.30
1075;DHT22;526;51.392;12.448;2023-09-19T13:19:44;22.60;78.60
1075;DHT22;526;51.392;12.448;2023-09-19T13:22:36;22.80;79.80
1075;DHT22;526;51.392;12.448;2023-09-19T13:25:10;23.00;78.50
1075;DHT22;526;51.392;12.448;2023-09-19T13:27:41;23.10;77.50
1075;DHT22;526;51.392;12.448;2023-09-19T13:30:07;23.30;77.60
1075;DHT22;526;51.392;12.448;2023-09-19T13:32:33;23.40;76.30
1075;DHT22;526;51.392;12.448;2023-09-19T13:34:59;23.40;76.70
1075;DHT22;526;51.392;12.448;2023-09-19T13:37:24;23.40;76.30
1075;DHT22;526;51.392;12.448;2023-09-19T13:39:51;23.40;76.60
1075;DHT22;526;51.392;12.448;2023-09-19T13:42:17;23.50;76.70
1075;DHT22;526;51.392;12.448;2023-09-19T13:44:44;23.60;76.20
1075;DHT22;526;51.392;12.448;2023-09-19T13:47:09;23.70;76.60
1075;DHT22;526;51.392;12.448;2023-09-19T13:49:36;23.70;76.20
1075;DHT22;526;51.392;12.448;2023-09-19T13:52:02;23.80;77.00
1075;DHT22;526;51.392;12.448;2023-09-19T13:54:31;23.70;75.40
1075;DHT22;526;51.392;12.448;2023-09-19T13:56:56;23.70;75.60
1075;DHT22;526;51.392;12.448;2023-09-19T13:59:22;23.70;76.60
1075;DHT22;526;51.392;12.448;2023-09-19T14:01:49;23.70;76.20
1075;DHT22;526;51.392;12.448;2023-09-19T14:04:15;23.70;76.30
1075;DHT22;526;51.392;12.448;2023-09-19T14:06:42;23.70;76.80
1075;DHT22;526;51.392;12.448;2023-09-19T14:09:08;23.80;76.30
1075;DHT22;526;51.392;12.448;2023-09-19T14:11:34;23.80;78.00
1075;DHT22;526;51.392;12.448;2023-09-19T14:14:00;23.90;77.40
1075;DHT22;526;51.392;12.448;2023-09-19T14:16:26;24.00;76.20
1075;DHT22;526;51.392;12.448;2023-09-19T14:18:55;24.00;76.80
1075;DHT22;526;51.392;12.448;2023-09-19T14:21:21;24.00;75.40
1075;DHT22;526;51.392;12.448;2023-09-19T14:23:46;24.00;75.60
1075;DHT22;526;51.392;12.448;2023-09-19T14:26:12;23.90;74.70
1075;DHT22;526;51.392;12.448;2023-09-19T14:28:37;24.00;76.70
1075;DHT22;526;51.392;12.448;2023-09-19T14:31:08;24.00;75.70
1075;DHT22;526;51.392;12.448;2023-09-19T14:33:35;24.00;75.90
1075;DHT22;526;51.392;12.448;2023-09-19T14:36:05;24.10;76.60
1075;DHT22;526;51.392;12.448;2023-09-19T14:38:35;24.10;74.60
1075;DHT22;526;51.392;12.448;2023-09-19T14:41:05;24.10;74.40
1075;DHT22;526;51.392;12.448;2023-09-19T14:43:31;24.20;74.90
1075;DHT22;526;51.392;12.448;2023-09-19T14:46:04;24.20;73.30
1075;DHT22;526;51.392;12.448;2023-09-19T14:48:30;24.10;73.90
1075;DHT22;526;51.392;12.448;2023-09-19T14:50:57;24.00;73.30
1075;DHT22;526;51.392;12.448;2023-09-19T14:53:27;24.00;75.00
1075;DHT22;526;51.392;12.448;2023-09-19T14:55:53;24.10;74.20
1075;DHT22;526;51.392;12.448;2023-09-19T14:58:20;24.20;75.00
1075;DHT22;526;51.392;12.448;2023-09-19T15:00:46;24.20;75.20
1075;DHT22;526;51.392;12.448;2023-09-19T15:03:12;24.20;74.70
1075;DHT22;526;51.392;12.448;2023-09-19T15:05:40;24.20;76.20
1075;DHT22;526;51.392;12.448;2023-09-19T15:08:05;24.20;74.60
1075;DHT22;526;51.392;12.448;2023-09-19T15:10:31;24.10;74.70
1075;DHT22;526;51.392;12.448;2023-09-19T15:12:57;23.90;75.30
1075;DHT22;526;51.392;12.448;2023-09-19T15:15:22;23.90;75.60
1075;DHT22;526;51.392;12.448;2023-09-19T15:17:48;23.90;74.60
1075;DHT22;526;51.392;12.448;2023-09-19T15:20:14;23.90;75.50
1075;DHT22;526;51.392;12.448;2023-09-19T15:22:40;24.00;74.50
1075;DHT22;526;51.392;12.448;2023-09-19T15:25:06;24.10;75.30
1075;DHT22;526;51.392;12.448;2023-09-19T15:27:32;24.20;74.90
1075;DHT22;526;51.392;12.448;2023-09-19T15:29:59;24.30;74.30
1075;DHT22;526;51.392;12.448;2023-09-19T15:32:25;24.30;72.30
1075;DHT22;526;51.392;12.448;2023-09-19T15:34:51;24.30;72.70
1075;DHT22;526;51.392;12.448;2023-09-19T15:37:17;24.20;72.50
1075;DHT22;526;51.392;12.448;2023-09-19T15:39:42;24.10;73.10
1075;DHT22;526;51.392;12.448;2023-09-19T15:42:10;24.10;72.50
1075;DHT22;526;51.392;12.448;2023-09-19T15:44:36;24.00;73.00
1075;DHT22;526;51.392;12.448;2023-09-19T15:47:03;24.10;72.10
1075;DHT22;526;51.392;12.448;2023-09-19T15:49:28;24.10;71.50
1075;DHT22;526;51.392;12.448;2023-09-19T15:51:54;24.10;72.40
1075;DHT22;526;51.392;12.448;2023-09-19T15:54:20;24.10;71.50
1075;DHT22;526;51.392;12.448;2023-09-19T15:56:46;24.20;72.90
1075;DHT22;526;51.392;12.448;2023-09-19T15:59:13;24.30;72.30
1075;DHT22;526;51.392;12.448;2023-09-19T16:01:40;24.20;71.70
1075;DHT22;526;51.392;12.448;2023-09-19T16:04:08;23.90;72.30
1075;DHT22;526;51.392;12.448;2023-09-19T16:06:35;23.70;72.90
1075;DHT22;526;51.392;12.448;2023-09-19T16:09:01;23.30;72.20
1075;DHT22;526;51.392;12.448;2023-09-19T16:11:29;23.00;73.30
1075;DHT22;526;51.392;12.448;2023-09-19T16:13:56;22.80;73.30
1075;DHT22;526;51.392;12.448;2023-09-19T16:16:23;22.80;74.30
1075;DHT22;526;51.392;12.448;2023-09-19T16:18:50;22.70;74.70
1075;DHT22;526;51.392;12.448;2023-09-19T16:21:17;22.70;74.50
1075;DHT22;526;51.392;12.448;2023-09-19T16:23:46;22.70;73.80
1075;DHT22;526;51.392;12.448;2023-09-19T16:26:12;22.70;74.00
1075;DHT22;526;51.392;12.448;2023-09-19T16:28:39;22.80;74.70
1075;DHT22;526;51.392;12.448;2023-09-19T16:31:06;22.80;74.70
1075;DHT22;526;51.392;12.448;2023-09-19T16:33:37;22.90;74.80
1075;DHT22;526;51.392;12.448;2023-09-19T16:36:07;22.90;74.70
1075;DHT22;526;51.392;12.448;2023-09-19T16:38:33;22.90;74.40
1075;DHT22;526;51.392;12.448;2023-09-19T16:40:59;22.70;74.00
1075;DHT22;526;51.392;12.448;2023-09-19T16:43:27;22.70;74.60
1075;DHT22;526;51.392;12.448;2023-09-19T16:45:58;22.70;74.60
1075;DHT22;526;51.392;12.448;2023-09-19T16:48:25;22.60;74.70
1075;DHT22;526;51.392;12.448;2023-09-19T16:50:51;22.50;75.00
1075;DHT22;526;51.392;12.448;2023-09-19T16:53:17;22.30;75.00
1075;DHT22;526;51.392;12.448;2023-09-19T16:55:47;22.20;75.50
1075;DHT22;526;51.392;12.448;2023-09-19T16:58:13;22.10;75.90
1075;DHT22;526;51.392;12.448;2023-09-19T17:00:39;22.00;76.10
1075;DHT22;526;51.392;12.448;2023-09-19T17:03:05;21.80;75.80
1075;DHT22;526;51.392;12.448;2023-09-19T17:05:31;21.60;76.70
1075;DHT22;526;51.392;12.448;2023-09-19T17:07:57;21.50;77.00
1075;DHT22;526;51.392;12.448;2023-09-19T17:10:24;21.30;77.20
1075;DHT22;526;51.392;12.448;2023-09-19T17:12:53;21.30;77.80
1075;DHT22;526;51.392;12.448;2023-09-19T17:15:20;21.20;77.70
1075;DHT22;526;51.392;12.448;2023-09-19T17:17:46;21.10;78.30
1075;DHT22;526;51.392;12.448;2023-09-19T17:20:12;21.00;78.70
1075;DHT22;526;51.392;12.448;2023-09-19T17:22:37;21.00;79.20
1075;DHT22;526;51.392;12.448;2023-09-19T17:25:04;20.90;79.50
1075;DHT22;526;51.392;12.448;2023-09-19T17:27:30;20.90;79.40
1075;DHT22;526;51.392;12.448;2023-09-19T17:29:56;20.80;80.00
1075;DHT22;526;51.392;12.448;2023-09-19T17:32:22;20.80;79.80
1075;DHT22;526;51.392;12.448;2023-09-19T17:34:48;20.80;80.40
1075;DHT22;526;51.392;12.448;2023-09-19T17:37:15;20.70;80.70
1075;DHT22;526;51.392;12.448;2023-09-19T17:39:40;20.70;81.10
1075;DHT22;526;51.392;12.448;2023-09-19T17:42:06;20.60;80.70
1075;DHT22;526;51.392;12.448;2023-09-19T17:44:33;20.50;80.70
1075;DHT22;526;51.392;12.448;2023-09-19T17:47:00;20.40;81.90
1075;DHT22;526;51.392;12.448;2023-09-19T17:49:26;20.30;83.20
1075;DHT22;526;51.392;12.448;2023-09-19T17:51:52;20.20;84.20
1075;DHT22;526;51.392;12.448;2023-09-19T17:54:18;20.10;84.80
1075;DHT22;526;51.392;12.448;2023-09-19T17:56:44;19.90;85.20
1075;DHT22;526;51.392;12.448;2023-09-19T17:59:09;19.80;85.30
1075;DHT22;526;51.392;12.448;2023-09-19T18:01:35;19.80;85.50
1075;DHT22;526;51.392;12.448;2023-09-19T18:04:02;19.70;85.90
1075;DHT22;526;51.392;12.448;2023-09-19T18:06:30;19.60;86.20
1075;DHT22;526;51.392;12.448;2023-09-19T18:08:56;19.60;86.50
1075;DHT22;526;51.392;12.448;2023-09-19T18:11:22;19.50;86.80
1075;DHT22;526;51.392;12.448;2023-09-19T18:13:52;19.40;86.90
1075;DHT22;526;51.392;12.448;2023-09-19T18:16:19;19.40;87.10
1075;DHT22;526;51.392;12.448;2023-09-19T18:18:45;19.20;87.20
1075;DHT22;526;51.392;12.448;2023-09-19T18:21:14;19.10;87.30
1075;DHT22;526;51.392;12.448;2023-09-19T18:23:40;19.10;88.30
1075;DHT22;526;51.392;12.448;2023-09-19T18:26:06;19.00;88.70
1075;DHT22;526;51.392;12.448;2023-09-19T18:28:35;18.90;88.60
1075;DHT22;526;51.392;12.448;2023-09-19T18:31:07;18.80;89.30
1075;DHT22;526;51.392;12.448;2023-09-19T18:33:33;18.70;90.30
1075;DHT22;526;51.392;12.448;2023-09-19T18:36:07;18.60;90.50
1075;DHT22;526;51.392;12.448;2023-09-19T18:38:40;18.60;90.30
1075;DHT22;526;51.392;12.448;2023-09-19T18:41:11;18.50;89.00
1075;DHT22;526;51.392;12.448;2023-09-19T18:43:37;18.50;87.10
1075;DHT22;526;51.392;12.448;2023-09-19T18:46:07;18.50;86.30
1075;DHT22;526;51.392;12.448;2023-09-19T18:48:43;18.50;85.70
1075;DHT22;526;51.392;12.448;2023-09-19T18:51:13;18.50;85.40
1075;DHT22;526;51.392;12.448;2023-09-19T18:53:44;18.60;85.40
1075;DHT22;526;51.392;12.448;2023-09-19T18:56:12;18.60;84.60
1075;DHT22;526;51.392;12.448;2023-09-19T18:58:40;18.60;84.60
1075;DHT22;526;51.392;12.448;2023-09-19T19:01:07;18.60;85.10
1075;DHT22;526;51.392;12.448;2023-09-19T19:03:33;18.60;84.80
1075;DHT22;526;51.392;12.448;2023-09-19T19:06:09;18.60;84.10
1075;DHT22;526;51.392;12.448;2023-09-19T19:08:35;18.60;84.60
1075;DHT22;526;51.392;12.448;2023-09-19T19:11:06;18.60;84.50
1075;DHT22;526;51.392;12.448;2023-09-19T19:13:32;18.60;84.10
1075;DHT22;526;51.392;12.448;2023-09-19T19:15:58;18.60;84.30
1075;DHT22;526;51.392;12.448;2023-09-19T19:18:24;18.60;83.80
1075;DHT22;526;51.392;12.448;2023-09-19T19:21:01;18.60;84.80
1075;DHT22;526;51.392;12.448;2023-09-19T19:23:27;18.60;85.20
1075;DHT22;526;51.392;12.448;2023-09-19T19:25:53;18.60;85.90
1075;DHT22;526;51.392;12.448;2023-09-19T19:28:19;18.60;85.40
1075;DHT22;526;51.392;12.448;2023-09-19T19:30:45;18.60;85.30
1075;DHT22;526;51.392;12.448;2023-09-19T19:33:12;18.60;86.10
1075;DHT22;526;51.392;12.448;2023-09-19T19:35:38;18.60;86.20
1075;DHT22;526;51.392;12.448;2023-09-19T19:38:07;18.50;87.30
1075;DHT22;526;51.392;12.448;2023-09-19T19:40:32;18.50;87.00
1075;DHT22;526;51.392;12.448;2023-09-19T19:42:58;18.50;87.70
1075;DHT22;526;51.392;12.448;2023-09-19T19:45:23;18.40;87.30
1075;DHT22;526;51.392;12.448;2023-09-19T19:47:49;18.40;87.80
1075;DHT22;526;51.392;12.448;2023-09-19T19:50:15;18.40;87.20
1075;DHT22;526;51.392;12.448;2023-09-19T19:52:42;18.40;87.20
1075;DHT22;526;51.392;12.448;2023-09-19T19:55:08;18.40;87.50
1075;DHT22;526;51.392;12.448;2023-09-19T19:57:35;18.40;87.30
1075;DHT22;526;51.392;12.448;2023-09-19T20:00:01;18.30;88.00
1075;DHT22;526;51.392;12.448;2023-09-19T20:02:31;18.30;88.10
1075;DHT22;526;51.392;12.448;2023-09-19T20:04:59;18.10;87.60
1075;DHT22;526;51.392;12.448;2023-09-19T20:07:27;18.10;88.20
1075;DHT22;526;51.392;12.448;2023-09-19T20:09:53;18.00;88.60
1075;DHT22;526;51.392;12.448;2023-09-19T20:12:19;18.00;89.10
1075;DHT22;526;51.392;12.448;2023-09-19T20:14:45;17.90;89.00
1075;DHT22;526;51.392;12.448;2023-09-19T20:17:10;17.80;89.30
1075;DHT22;526;51.392;12.448;2023-09-19T20:19:37;17.70;89.80
1075;DHT22;526;51.392;12.448;2023-09-19T20:22:03;17.60;90.80
1075;DHT22;526;51.392;12.448;2023-09-19T20:24:31;17.50;90.60
1075;DHT22;526;51.392;12.448;2023-09-19T20:26:56;17.40;90.80
1075;DHT22;526;51.392;12.448;2023-09-19T20:29:26;17.30;90.90
1075;DHT22;526;51.392;12.448;2023-09-19T20:31:53;17.20;91.30
1075;DHT22;526;51.392;12.448;2023-09-19T20:34:19;17.20;91.20